Time;durP1;ratioP1;P1;durP2;ratioP2;P2;SDS_P1;SDS_P2;PMS_P1;PMS_P2;Temp;Humidity;BMP_temperature;BMP_pressure;BME280_temperature;BME280_humidity;BME280_pressure;Samples;Min_cycle;Max_cycle;Signal;HPM_P1;HPM_P2
2023/12/14 00:00:40;;;;;;;;;;;;;;;;;;5107428;28;20454;-50
2023/12/14 00:03:06;;;;;;;;;;;;;;;;;;5107373;28;19971;-49
2023/12/14 00:05:32;;;;;;;;;;;;;;;;;;5107912;28;19923;-48
2023/12/14 00:07:59;;;;;;;;;;;;;;;;;;5107288;28;20094;-50
2023/12/14 00:10:25;;;;;;;;;;;;;;;;;;5106867;27;19924;-51
2023/12/14 00:12:53;;;;;;;;;;;;;;;;;;5107336;28;20590;-50
2023/12/14 00:15:19;;;;;;;;;;;;;;;;;;5107011;28;19985;-49
2023/12/14 00:17:45;;;;;;;;;;;;;;;;;;5106805;28;19923;-50
2023/12/14 00:20:11;;;;;;;;;;;;;;;;;;5106612;28;19959;-50
2023/12/14 00:22:38;;;;;;;;;;;;;;;;;;5107044;28;20188;-49
2023/12/14 00:25:04;;;;;;;;;;;;;;;;;;5107292;28;19932;-49
2023/12/14 00:27:30;;;;;;;;;;;;;;;;;;5107031;28;20239;-49
2023/12/14 00:29:56;;;;;;;;;;;;;;;;;;5106722;28;19924;-51
2023/12/14 00:32:22;;;;;;;;;;;;;;;;;;5106620;28;19946;-51
2023/12/14 00:34:48;;;;;;;;;;;;;;;;;;5106401;28;20012;-50
2023/12/14 00:37:15;;;;;;;;;;;;;;;;;;5107351;28;19973;-50
2023/12/14 00:39:41;;;;;;;;;;;;;;;;;;5106836;28;19927;-49
2023/12/14 00:42:07;;;;;;;;;;;;;;;;;;5106761;28;19923;-50
2023/12/14 00:44:33;;;;;;;;;;;;;;;;;;5106735;28;19928;-51
2023/12/14 00:47:00;;;;;;;;;;;;;;;;;;5107240;28;19927;-51
2023/12/14 00:49:28;;;;;;;;;;;;;;;;;;5106407;28;20298;-50
2023/12/14 00:51:54;;;;;;;;;;;;;;;;;;5105486;28;20382;-50
2023/12/14 00:54:20;;;;;;;;;;;;;;;;;;5107215;28;19924;-50
2023/12/14 00:56:46;;;;;;;;;;;;;;;;;;5106898;28;19999;-51
2023/12/14 00:59:12;;;;;;;;;;;;;;;;;;5106375;28;19982;-50
2023/12/14 01:01:39;;;;;;;;;;;;;;;;;;5106831;28;19932;-51
2023/12/14 01:04:05;;;;;;;;;;;;;;;;;;5106691;28;19975;-48
2023/12/14 01:06:31;;;;;;;;;;;;;;;;;;5106416;28;19928;-51
2023/12/14 01:08:57;;;;;;;;;;;;;;;;;;5106739;28;19924;-51
2023/12/14 01:11:23;;;;;;;;;;;;;;;;;;5106932;28;19927;-50
2023/12/14 01:13:50;;;;;;;;;;;;;;;;;;5106704;28;20024;-50
2023/12/14 01:16:16;;;;;;;;;;;;;;;;;;5106879;28;20012;-50
2023/12/14 01:18:42;;;;;;;;;;;;;;;;;;5106759;28;19928;-50
2023/12/14 01:21:08;;;;;;;;;;;;;;;;;;5106858;28;19928;-51
2023/12/14 01:23:34;;;;;;;;;;;;;;;;;;5106199;28;19924;-50
2023/12/14 01:26:01;;;;;;;;;;;;;;;;;;5106481;28;20268;-51
2023/12/14 01:28:27;;;;;;;;;;;;;;;;;;5106805;28;19939;-50
2023/12/14 01:30:53;;;;;;;;;;;;;;;;;;5106452;28;19959;-51
2023/12/14 01:33:19;;;;;;;;;;;;;;;;;;5106313;28;20302;-51
2023/12/14 01:35:46;;;;;;;;;;;;;;;;;;5106255;28;19938;-51
2023/12/14 01:38:12;;;;;;;;;;;;;;;;;;5102499;28;20347;-50
2023/12/14 01:40:38;;;;;;;;;;;;;;;;;;5106025;28;19924;-50
2023/12/14 01:43:04;;;;;;;;;;;;;;;;;;5106600;28;20002;-50
2023/12/14 01:45:30;;;;;;;;;;;;;;;;;;5106095;28;19923;-52
2023/12/14 01:47:56;;;;;;;;;;;;;;;;;;5106197;28;19924;-51
2023/12/14 01:50:23;;;;;;;;;;;;;;;;;;5105993;28;19928;-51
2023/12/14 01:52:49;;;;;;;;;;;;;;;;;;5106711;28;19997;-50
2023/12/14 01:55:15;;;;;;;;;;;;;;;;;;5106094;28;19939;-50
2023/12/14 01:57:41;;;;;;;;;;;;;;;;;;5106354;28;19927;-51
2023/12/14 02:00:07;;;;;;;;;;;;;;;;;;5106588;28;20253;-50
2023/12/14 02:02:35;;;;;;;;;;;;;;;;;;5107900;28;20409;-51
2023/12/14 02:05:02;;;;;;;;;;;;;;;;;;5109972;28;20042;-49
2023/12/14 02:07:28;;;;;;;;;;;;;;;;;;5109354;28;20371;-49
2023/12/14 02:09:54;;;;;;;;;;;;;;;;;;5109749;28;20452;-51
2023/12/14 02:12:20;;;;;;;;;;;;;;;;;;5109989;28;20471;-49
2023/12/14 02:14:46;;;;;;;;;;;;;;;;;;5109696;28;19963;-50
2023/12/14 02:17:13;;;;;;;;;;;;;;;;;;5109411;28;20306;-49
2023/12/14 02:19:39;;;;;;;;;;;;;;;;;;5109611;28;19927;-50
2023/12/14 02:22:05;;;;;;;;;;;;;;;;;;5108685;28;20283;-51
2023/12/14 02:24:31;;;;;;;;;;;;;;;;;;5108837;28;20338;-50
2023/12/14 02:26:57;;;;;;;;;;;;;;;;;;5109352;28;20360;-49
2023/12/14 02:29:28;;;;;;;;;;;;;;;;;;5108552;28;20591;-51
2023/12/14 02:31:54;;;;;;;;;;;;;;;;;;5109365;28;20331;-51
2023/12/14 02:34:20;;;;;;;;;;;;;;;;;;5109235;28;19932;-50
2023/12/14 02:36:46;;;;;;;;;;;;;;;;;;5109047;28;20599;-47
2023/12/14 02:39:12;;;;;;;;;;;;;;;;;;5108927;28;20042;-49
2023/12/14 02:41:39;;;;;;;;;;;;;;;;;;5109365;27;19927;-51
2023/12/14 02:44:05;;;;;;;;;;;;;;;;;;5109038;28;20387;-50
2023/12/14 02:46:31;;;;;;;;;;;;;;;;;;5109032;28;19938;-50
2023/12/14 02:48:57;;;;;;;;;;;;;;;;;;5108827;27;19935;-50
2023/12/14 02:51:23;;;;;;;;;;;;;;;;;;5109072;28;19946;-50
2023/12/14 02:53:50;;;;;;;;;;;;;;;;;;5109107;28;19957;-50
2023/12/14 02:56:16;;;;;;;;;;;;;;;;;;5108679;27;19927;-50
2023/12/14 02:58:42;;;;;;;;;;;;;;;;;;5108765;28;19924;-51
2023/12/14 03:01:08;;;;;;;;;;;;;;;;;;5109020;28;19931;-49
2023/12/14 03:03:35;;;;;;;;;;;;;;;;;;5108582;27;20014;-49
2023/12/14 03:06:01;;;;;;;;;;;;;;;;;;5108927;28;19931;-52
2023/12/14 03:08:27;;;;;;;;;;;;;;;;;;5109352;28;19931;-50
2023/12/14 03:10:53;;;;;;;;;;;;;;;;;;5108009;28;19977;-50
2023/12/14 03:13:19;;;;;;;;;;;;;;;;;;5107865;28;20006;-51
2023/12/14 03:15:46;;;;;;;;;;;;;;;;;;5107844;28;20262;-51
2023/12/14 03:18:12;;;;;;;;;;;;;;;;;;5108597;28;19927;-50
2023/12/14 03:20:38;;;;;;;;;;;;;;;;;;5108365;28;19923;-50
2023/12/14 03:23:04;;;;;;;;;;;;;;;;;;5108751;28;19971;-48
2023/12/14 03:25:30;;;;;;;;;;;;;;;;;;5108253;28;20377;-50
2023/12/14 03:27:57;;;;;;;;;;;;;;;;;;5108559;28;19930;-51
2023/12/14 03:30:23;;;;;;;;;;;;;;;;;;5108128;28;19966;-51
2023/12/14 03:32:49;;;;;;;;;;;;;;;;;;5108216;27;19930;-50
2023/12/14 03:35:15;;;;;;;;;;;;;;;;;;5108076;28;19928;-50
2023/12/14 03:37:41;;;;;;;;;;;;;;;;;;5108058;28;19928;-49
2023/12/14 03:40:08;;;;;;;;;;;;;;;;;;5108114;28;19932;-50
2023/12/14 03:42:34;;;;;;;;;;;;;;;;;;5108416;28;19927;-51
2023/12/14 03:45:00;;;;;;;;;;;;;;;;;;5107000;28;19927;-50
2023/12/14 03:47:26;;;;;;;;;;;;;;;;;;5107371;28;19963;-49
2023/12/14 03:49:53;;;;;;;;;;;;;;;;;;5108209;28;19924;-51
2023/12/14 03:52:19;;;;;;;;;;;;;;;;;;5108118;28;19943;-51
2023/12/14 03:54:45;;;;;;;;;;;;;;;;;;5107669;28;19973;-51
2023/12/14 03:57:11;;;;;;;;;;;;;;;;;;5107469;28;20023;-49
2023/12/14 03:59:37;;;;;;;;;;;;;;;;;;5107647;28;19935;-51
2023/12/14 04:02:03;;;;;;;;;;;;;;;;;;5107820;28;19924;-50
2023/12/14 04:04:30;;;;;;;;;;;;;;;;;;5107470;28;19951;-49
2023/12/14 04:06:56;;;;;;;;;;;;;;;;;;5107611;28;19924;-51
2023/12/14 04:09:22;;;;;;;;;;;;;;;;;;5107313;28;20360;-49
2023/12/14 04:11:48;;;;;;;;;;;;;;;;;;5107747;28;20375;-50
2023/12/14 04:14:14;;;;;;;;;;;;;;;;;;5107619;28;20015;-49
2023/12/14 04:16:40;;;;;;;;;;;;;;;;;;5106878;28;19932;-49
2023/12/14 04:19:10;;;;;;;;;;;;;;;;;;5107540;28;19931;-50
2023/12/14 04:21:36;;;;;;;;;;;;;;;;;;5107437;28;20297;-51
2023/12/14 04:24:02;;;;;;;;;;;;;;;;;;5107147;28;20024;-47
2023/12/14 04:26:28;;;;;;;;;;;;;;;;;;5106640;28;19971;-50
2023/12/14 04:28:54;;;;;;;;;;;;;;;;;;5107551;28;19928;-50
2023/12/14 04:31:21;;;;;;;;;;;;;;;;;;5107442;28;19990;-50
2023/12/14 04:33:47;;;;;;;;;;;;;;;;;;5107447;28;19985;-51
2023/12/14 04:36:13;;;;;;;;;;;;;;;;;;5106859;28;19923;-48
2023/12/14 04:38:39;;;;;;;;;;;;;;;;;;5106779;28;19924;-49
2023/12/14 04:41:05;;;;;;;;;;;;;;;;;;5107262;28;19927;-50
2023/12/14 04:43:32;;;;;;;;;;;;;;;;;;5107070;28;19927;-50
2023/12/14 04:45:58;;;;;;;;;;;;;;;;;;5106581;28;19952;-50
2023/12/14 04:48:24;;;;;;;;;;;;;;;;;;5106880;28;19984;-51
2023/12/14 04:50:50;;;;;;;;;;;;;;;;;;5106640;28;20403;-51
2023/12/14 04:53:17;;;;;;;;;;;;;;;;;;5107286;28;19928;-49
2023/12/14 04:55:43;;;;;;;;;;;;;;;;;;5106293;28;19935;-51
2023/12/14 04:58:11;;;;;;;;;;;;;;;;;;5106691;28;19928;-50
2023/12/14 05:00:37;;;;;;;;;;;;;;;;;;5107071;28;19928;-46
2023/12/14 05:03:03;;;;;;;;;;;;;;;;;;5107234;28;19928;-50
2023/12/14 05:05:29;;;;;;;;;;;;;;;;;;5106466;28;19984;-50
2023/12/14 05:07:55;;;;;;;;;;;;;;;;;;5106670;28;19924;-51
2023/12/14 05:10:22;;;;;;;;;;;;;;;;;;5106775;28;19932;-50
2023/12/14 05:12:48;;;;;;;;;;;;;;;;;;5107024;28;19924;-51
2023/12/14 05:15:14;;;;;;;;;;;;;;;;;;5105728;28;20028;-49
2023/12/14 05:17:40;;;;;;;;;;;;;;;;;;5106274;28;19957;-49
2023/12/14 05:20:08;;;;;;;;;;;;;;;;;;5106570;28;19966;-51
2023/12/14 05:22:34;;;;;;;;;;;;;;;;;;5106794;28;19924;-49
2023/12/14 05:25:00;;;;;;;;;;;;;;;;;;5106020;28;19934;-51
2023/12/14 05:27:26;;;;;;;;;;;;;;;;;;5106563;28;19980;-50
2023/12/14 05:29:52;;;;;;;;;;;;;;;;;;5106819;28;19975;-50
2023/12/14 05:32:19;;;;;;;;;;;;;;;;;;5106776;28;19959;-49
2023/12/14 05:34:45;;;;;;;;;;;;;;;;;;5106477;28;19924;-49
2023/12/14 05:37:11;;;;;;;;;;;;;;;;;;5107133;28;20276;-50
2023/12/14 05:39:37;;;;;;;;;;;;;;;;;;5110685;28;19988;-48
2023/12/14 05:42:03;;;;;;;;;;;;;;;;;;5110586;28;19981;-50
2023/12/14 05:44:31;;;;;;;;;;;;;;;;;;5109273;28;21214;-49
2023/12/14 05:46:58;;;;;;;;;;;;;;;;;;5110431;28;19928;-47
2023/12/14 05:49:24;;;;;;;;;;;;;;;;;;5110406;28;20212;-50
2023/12/14 05:51:50;;;;;;;;;;;;;;;;;;5110357;28;19969;-50
2023/12/14 05:54:16;;;;;;;;;;;;;;;;;;5110505;28;19923;-49
2023/12/14 05:56:42;;;;;;;;;;;;;;;;;;5105404;28;19963;-49
2023/12/14 05:59:08;;;;;;;;;;;;;;;;;;5105068;28;19928;-50
2023/12/14 06:01:35;;;;;;;;;;;;;;;;;;5108948;27;19959;-49
2023/12/14 06:04:02;;;;;;;;;;;;;;;;;;5105617;28;19967;-50
2023/12/14 06:06:28;;;;;;;;;;;;;;;;;;5106347;28;19931;-48
2023/12/14 06:08:54;;;;;;;;;;;;;;;;;;5106230;28;19923;-50
2023/12/14 06:11:20;;;;;;;;;;;;;;;;;;5106142;28;19969;-51
2023/12/14 06:13:46;;;;;;;;;;;;;;;;;;5107949;28;19932;-50
2023/12/14 06:16:13;;;;;;;;;;;;;;;;;;5106150;27;20348;-50
2023/12/14 06:18:41;;;;;;;;;;;;;;;;;;5109067;28;19928;-47
2023/12/14 06:21:08;;;;;;;;;;;;;;;;;;5106884;28;19969;-50
2023/12/14 06:23:34;;;;;;;;;;;;;;;;;;5107889;28;19975;-48
2023/12/14 06:26:03;;;;;;;;;;;;;;;;;;5106692;28;19932;-51
2023/12/14 06:28:30;;;;;;;;;;;;;;;;;;5106328;27;20457;-51
2023/12/14 06:30:56;;;;;;;;;;;;;;;;;;5106084;28;19971;-51
2023/12/14 06:33:22;;;;;;;;;;;;;;;;;;5106344;28;19935;-49
2023/12/14 06:35:49;;;;;;;;;;;;;;;;;;5102343;28;21534;-47
2023/12/14 06:38:16;;;;;;;;;;;;;;;;;;5101010;28;19973;-51
2023/12/14 06:40:42;;;;;;;;;;;;;;;;;;5104984;28;20287;-51
2023/12/14 06:43:08;;;;;;;;;;;;;;;;;;5104667;28;19927;-49
2023/12/14 06:45:34;;;;;;;;;;;;;;;;;;5103655;28;19923;-47
2023/12/14 06:48:00;;;;;;;;;;;;;;;;;;5105022;28;20615;-53
2023/12/14 06:50:27;;;;;;;;;;;;;;;;;;5105273;27;19975;-49
2023/12/14 06:52:53;;;;;;;;;;;;;;;;;;5101265;28;20430;-49
2023/12/14 06:55:19;;;;;;;;;;;;;;;;;;5107411;28;19940;-50
2023/12/14 06:57:46;;;;;;;;;;;;;;;;;;5104000;28;19949;-49
2023/12/14 07:00:13;;;;;;;;;;;;;;;;;;5101814;27;20019;-50
2023/12/14 07:02:39;;;;;;;;;;;;;;;;;;5102142;28;19927;-53
2023/12/14 07:05:05;;;;;;;;;;;;;;;;;;5099239;28;19989;-52
2023/12/14 07:07:32;;;;;;;;;;;;;;;;;;5101482;28;20378;-50
2023/12/14 07:09:58;;;;;;;;;;;;;;;;;;5096605;28;20248;-49
2023/12/14 07:12:24;;;;;;;;;;;;;;;;;;5102704;28;19969;-52
2023/12/14 07:14:50;;;;;;;;;;;;;;;;;;5099429;28;20477;-52
2023/12/14 07:17:16;;;;;;;;;;;;;;;;;;5093304;28;20760;-51
2023/12/14 07:19:43;;;;;;;;;;;;;;;;;;5096297;27;20395;-52
2023/12/14 07:22:09;;;;;;;;;;;;;;;;;;5096018;28;19932;-53
2023/12/14 07:24:35;;;;;;;;;;;;;;;;;;5100743;28;19975;-51
2023/12/14 07:27:09;;;;;;;;;;;;;;;;;;5099168;28;19988;-49
2023/12/14 07:29:35;;;;;;;;;;;;;;;;;;5096200;28;19976;-50
2023/12/14 07:32:01;;;;;;;;;;;;;;;;;;5096782;28;20024;-48
2023/12/14 07:34:28;;;;;;;;;;;;;;;;;;5102982;27;19928;-49
2023/12/14 07:36:54;;;;;;;;;;;;;;;;;;5096460;28;19932;-51
2023/12/14 07:39:20;;;;;;;;;;;;;;;;;;5099831;28;20014;-48
2023/12/14 07:41:46;;;;;;;;;;;;;;;;;;5096208;28;19993;-46
2023/12/14 07:44:12;;;;;;;;;;;;;;;;;;5092959;28;20551;-50
2023/12/14 07:46:41;;;;;;;;;;;;;;;;;;5096835;28;20455;-45
2023/12/14 07:49:07;;;;;;;;;;;;;;;;;;5098556;28;20051;-49
2023/12/14 07:51:33;;;;;;;;;;;;;;;;;;5100310;28;20168;-50
2023/12/14 07:54:00;;;;;;;;;;;;;;;;;;5102970;28;19967;-49
2023/12/14 07:56:27;;;;;;;;;;;;;;;;;;5099077;28;19927;-50
2023/12/14 07:58:53;;;;;;;;;;;;;;;;;;5097442;28;19935;-51
2023/12/14 08:01:20;;;;;;;;;;;;;;;;;;5098266;28;20334;-52
2023/12/14 08:03:46;;;;;;;;;;;;;;;;;;5098992;28;19923;-51
2023/12/14 08:06:12;;;;;;;;;;;;;;;;;;5096132;28;19938;-52
2023/12/14 08:08:42;;;;;;;;;;;;;;;;;;5100158;28;20649;-51
2023/12/14 08:11:08;;;;;;;;;;;;;;;;;;5100729;28;19924;-52
2023/12/14 08:13:34;;;;;;;;;;;;;;;;;;5101458;28;19931;-59
2023/12/14 08:16:01;;;;;;;;;;;;;;;;;;5100853;28;19928;-57
2023/12/14 08:18:27;;;;;;;;;;;;;;;;;;5101915;28;19931;-60
2023/12/14 08:20:55;;;;;;;;;;;;;;;;;;5095102;28;20030;-53
2023/12/14 08:23:21;;;;;;;;;;;;;;;;;;5095199;28;19963;-56
2023/12/14 08:25:47;;;;;;;;;;;;;;;;;;5098525;27;19944;-52
2023/12/14 08:28:13;;;;;;;;;;;;;;;;;;5097376;28;19923;-50
2023/12/14 08:30:40;;;;;;;;;;;;;;;;;;5100302;28;20079;-49
2023/12/14 08:33:06;;;;;;;;;;;;;;;;;;5095705;28;20311;-49
2023/12/14 08:35:32;;;;;;;;;;;;;;;;;;5098385;28;19932;-49
2023/12/14 08:37:58;;;;;;;;;;;;;;;;;;5090954;28;20768;-48
2023/12/14 08:40:24;;;;;;;;;;;;;;;;;;5091317;28;19944;-50
2023/12/14 08:42:51;;;;;;;;;;;;;;;;;;5093512;28;20479;-49
2023/12/14 08:45:17;;;;;;;;;;;;;;;;;;5097711;27;19963;-48
2023/12/14 08:47:43;;;;;;;;;;;;;;;;;;5091683;28;19932;-49
2023/12/14 08:50:09;;;;;;;;;;;;;;;;;;5088437;28;19949;-48
2023/12/14 08:52:35;;;;;;;;;;;;;;;;;;5050731;28;19929;-50
2023/12/14 08:55:02;;;;;;;;;;;;;;;;;;5051187;28;20071;-48
2023/12/14 08:57:28;;;;;;;;;;;;;;;;;;5052972;28;19925;-48
2023/12/14 08:59:54;;;;;;;;;;;;;;;;;;5054241;28;20062;-47
2023/12/14 09:02:20;;;;;;;;;;;;;;;;;;5054888;28;19979;-49
2023/12/14 09:04:47;;;;;;;;;;;;;;;;;;5048046;28;19928;-52
2023/12/14 09:07:13;;;;;;;;;;;;;;;;;;5050048;28;20531;-50
2023/12/14 09:09:39;;;;;;;;;;;;;;;;;;5055940;28;21086;-50
2023/12/14 09:12:05;;;;;;;;;;;;;;;;;;5099558;27;20069;-50
2023/12/14 09:14:31;;;;;;;;;;;;;;;;;;5097661;27;19931;-52
2023/12/14 09:16:58;;;;;;;;;;;;;;;;;;5102271;28;19931;-52
2023/12/14 09:19:24;;;;;;;;;;;;;;;;;;5095586;28;19939;-61
2023/12/14 09:21:50;;;;;;;;;;;;;;;;;;5100854;28;20405;-62
2023/12/14 09:24:17;;;;;;;;;;;;;;;;;;5098293;28;20013;-57
2023/12/14 09:26:43;;;;;;;;;;;;;;;;;;5101535;28;19977;-51
2023/12/14 09:29:09;;;;;;;;;;;;;;;;;;5102781;28;20255;-52
2023/12/14 09:31:36;;;;;;;;;;;;;;;;;;5100974;27;19932;-57
2023/12/14 09:34:03;;;;;;;;;;;;;;;;;;5101071;28;19938;-53
2023/12/14 09:36:29;;;;;;;;;;;;;;;;;;5094611;27;19932;-52
2023/12/14 09:38:55;;;;;;;;;;;;;;;;;;5098206;28;19954;-53
2023/12/14 09:41:21;;;;;;;;;;;;;;;;;;5098126;28;19958;-54
2023/12/14 09:43:48;;;;;;;;;;;;;;;;;;5101693;28;20329;-54
2023/12/14 09:46:14;;;;;;;;;;;;;;;;;;5100270;28;19935;-49
2023/12/14 09:48:40;;;;;;;;;;;;;;;;;;5102770;28;19981;-51
2023/12/14 09:51:06;;;;;;;;;;;;;;;;;;5095462;28;20006;-53
2023/12/14 09:53:32;;;;;;;;;;;;;;;;;;5099862;28;19927;-54
2023/12/14 09:55:59;;;;;;;;;;;;;;;;;;5097905;27;19932;-51
2023/12/14 09:58:25;;;;;;;;;;;;;;;;;;5095235;27;19932;-52
2023/12/14 10:00:51;;;;;;;;;;;;;;;;;;5100839;28;19924;-53
2023/12/14 10:03:17;;;;;;;;;;;;;;;;;;5099309;27;19938;-54
2023/12/14 10:05:43;;;;;;;;;;;;;;;;;;5097043;27;19932;-52
2023/12/14 10:08:10;;;;;;;;;;;;;;;;;;5099087;27;19924;-53
2023/12/14 10:10:36;;;;;;;;;;;;;;;;;;5096510;27;20026;-54
2023/12/14 10:13:02;;;;;;;;;;;;;;;;;;5100372;28;19928;-54
2023/12/14 10:15:28;;;;;;;;;;;;;;;;;;5096062;28;19960;-52
2023/12/14 10:17:54;;;;;;;;;;;;;;;;;;5095303;27;20295;-53
2023/12/14 10:20:22;;;;;;;;;;;;;;;;;;5098844;27;20023;-53
2023/12/14 10:22:49;;;;;;;;;;;;;;;;;;5092107;27;20399;-53
2023/12/14 10:25:16;;;;;;;;;;;;;;;;;;5092223;28;20386;-51
2023/12/14 10:27:42;;;;;;;;;;;;;;;;;;5096973;28;19928;-50
2023/12/14 10:30:11;;;;;;;;;;;;;;;;;;5093937;28;19949;-51
2023/12/14 10:32:38;;;;;;;;;;;;;;;;;;5098313;27;19981;-52
2023/12/14 10:35:04;;;;;;;;;;;;;;;;;;5096964;27;20821;-54
2023/12/14 10:37:30;;;;;;;;;;;;;;;;;;5099837;27;19931;-52
2023/12/14 10:39:56;;;;;;;;;;;;;;;;;;5092557;27;20404;-54
2023/12/14 10:42:22;;;;;;;;;;;;;;;;;;5095588;27;20159;-53
2023/12/14 10:44:49;;;;;;;;;;;;;;;;;;5092601;27;19984;-54
2023/12/14 10:47:31;;;;;;;;;;;;;;;;;;5097195;27;19947;-54
2023/12/14 10:49:58;;;;;;;;;;;;;;;;;;5096664;27;19932;-53
2023/12/14 10:52:24;;;;;;;;;;;;;;;;;;5099011;27;19923;-53
2023/12/14 10:54:50;;;;;;;;;;;;;;;;;;5094331;27;19979;-53
2023/12/14 10:57:16;;;;;;;;;;;;;;;;;;5096042;27;20414;-54
2023/12/14 10:59:43;;;;;;;;;;;;;;;;;;5096565;27;20080;-54
2023/12/14 11:02:10;;;;;;;;;;;;;;;;;;5099202;28;19963;-51
2023/12/14 11:04:36;;;;;;;;;;;;;;;;;;5096304;28;20318;-52
2023/12/14 11:07:03;;;;;;;;;;;;;;;;;;5102350;28;20064;-53
2023/12/14 11:09:31;;;;;;;;;;;;;;;;;;5097972;28;20047;-51
2023/12/14 11:11:57;;;;;;;;;;;;;;;;;;5101581;27;19989;-51
2023/12/14 11:14:23;;;;;;;;;;;;;;;;;;5094622;28;19931;-50
2023/12/14 11:16:50;;;;;;;;;;;;;;;;;;5100397;27;19942;-51
2023/12/14 11:19:16;;;;;;;;;;;;;;;;;;5104013;28;20020;-51
2023/12/14 11:21:42;;;;;;;;;;;;;;;;;;5098674;28;20284;-50
2023/12/14 11:24:08;;;;;;;;;;;;;;;;;;5099149;28;20329;-50
2023/12/14 11:26:34;;;;;;;;;;;;;;;;;;5098153;28;20345;-50
2023/12/14 11:29:00;;;;;;;;;;;;;;;;;;5099417;28;20398;-51
2023/12/14 11:31:28;;;;;;;;;;;;;;;;;;5097331;27;19932;-50
2023/12/14 11:33:56;;;;;;;;;;;;;;;;;;5100022;28;19928;-51
2023/12/14 11:36:22;;;;;;;;;;;;;;;;;;5098243;28;20338;-49
2023/12/14 11:38:50;;;;;;;;;;;;;;;;;;5099736;27;19992;-52
2023/12/14 11:41:19;;;;;;;;;;;;;;;;;;5097955;27;20302;-54
2023/12/14 11:43:45;;;;;;;;;;;;;;;;;;5097222;27;19963;-51
2023/12/14 11:46:12;;;;;;;;;;;;;;;;;;5100610;28;19924;-51
2023/12/14 11:48:38;;;;;;;;;;;;;;;;;;5102807;28;20020;-49
2023/12/14 11:51:04;;;;;;;;;;;;;;;;;;5095917;28;19935;-51
2023/12/14 11:53:32;;;;;;;;;;;;;;;;;;5100738;28;19924;-50
2023/12/14 11:55:58;;;;;;;;;;;;;;;;;;5098780;28;19932;-52
2023/12/14 11:58:24;;;;;;;;;;;;;;;;;;5103557;28;19935;-52
2023/12/14 12:00:50;;;;;;;;;;;;;;;;;;5099758;28;20575;-51
2023/12/14 12:03:17;;;;;;;;;;;;;;;;;;5093984;27;20013;-50
2023/12/14 12:05:43;;;;;;;;;;;;;;;;;;5097578;28;19932;-50
2023/12/14 12:08:09;;;;;;;;;;;;;;;;;;5099546;28;20283;-49
2023/12/14 12:10:35;;;;;;;;;;;;;;;;;;5096808;28;19934;-49
2023/12/14 12:13:02;;;;;;;;;;;;;;;;;;5097994;28;19935;-50
2023/12/14 12:15:28;;;;;;;;;;;;;;;;;;5095817;28;19950;-51
2023/12/14 12:17:54;;;;;;;;;;;;;;;;;;5098724;28;20011;-49
2023/12/14 12:20:21;;;;;;;;;;;;;;;;;;5099192;28;19935;-51
2023/12/14 12:22:47;;;;;;;;;;;;;;;;;;5094298;27;19932;-51
2023/12/14 12:25:13;;;;;;;;;;;;;;;;;;5101469;27;20441;-51
2023/12/14 12:27:41;;;;;;;;;;;;;;;;;;5096857;27;19944;-50
2023/12/14 12:30:07;;;;;;;;;;;;;;;;;;5102239;27;19932;-52
2023/12/14 12:32:33;;;;;;;;;;;;;;;;;;5105285;28;19951;-51
2023/12/14 12:34:59;;;;;;;;;;;;;;;;;;5099913;28;19928;-52
2023/12/14 12:37:25;;;;;;;;;;;;;;;;;;5098197;28;19931;-50
2023/12/14 12:39:52;;;;;;;;;;;;;;;;;;5095449;27;19959;-53
2023/12/14 12:42:18;;;;;;;;;;;;;;;;;;5100226;28;20034;-50
2023/12/14 12:44:44;;;;;;;;;;;;;;;;;;5097056;28;19932;-52
2023/12/14 12:47:10;;;;;;;;;;;;;;;;;;5096706;27;19932;-50
2023/12/14 12:49:37;;;;;;;;;;;;;;;;;;5094635;27;19935;-52
2023/12/14 12:52:03;;;;;;;;;;;;;;;;;;5098515;28;19935;-51
2023/12/14 12:54:29;;;;;;;;;;;;;;;;;;5098812;27;20184;-51
2023/12/14 12:56:55;;;;;;;;;;;;;;;;;;5099004;27;20010;-55
2023/12/14 12:59:22;;;;;;;;;;;;;;;;;;5097617;28;19924;-52
2023/12/14 13:01:48;;;;;;;;;;;;;;;;;;5097456;28;20249;-50
2023/12/14 13:04:14;;;;;;;;;;;;;;;;;;5096570;28;20437;-49
2023/12/14 13:06:40;;;;;;;;;;;;;;;;;;5098345;28;20393;-50
2023/12/14 13:09:08;;;;;;;;;;;;;;;;;;5093763;28;19932;-50
2023/12/14 13:11:34;;;;;;;;;;;;;;;;;;5097783;28;19932;-50
2023/12/14 13:14:04;;;;;;;;;;;;;;;;;;5095078;28;20322;-50
2023/12/14 13:16:30;;;;;;;;;;;;;;;;;;5096337;28;19932;-51
2023/12/14 13:18:57;;;;;;;;;;;;;;;;;;5094001;28;20786;-51
2023/12/14 13:21:23;;;;;;;;;;;;;;;;;;5093244;28;20314;-50
2023/12/14 13:23:50;;;;;;;;;;;;;;;;;;5090858;28;19967;-51
2023/12/14 13:26:17;;;;;;;;;;;;;;;;;;5103803;28;19928;-50
2023/12/14 13:28:43;;;;;;;;;;;;;;;;;;5102430;28;19973;-51
2023/12/14 13:31:09;;;;;;;;;;;;;;;;;;5101534;28;19938;-50
2023/12/14 13:33:35;;;;;;;;;;;;;;;;;;5098702;28;20296;-50
2023/12/14 13:36:02;;;;;;;;;;;;;;;;;;5101468;28;20236;-52
2023/12/14 13:38:28;;;;;;;;;;;;;;;;;;5089379;28;19927;-53
2023/12/14 13:40:54;;;;;;;;;;;;;;;;;;5096226;28;20393;-52
2023/12/14 13:43:20;;;;;;;;;;;;;;;;;;5100367;28;19954;-51
2023/12/14 13:45:47;;;;;;;;;;;;;;;;;;5102757;28;20403;-52
2023/12/14 13:48:20;;;;;;;;;;;;;;;;;;5100117;28;19923;-51
2023/12/14 13:50:46;;;;;;;;;;;;;;;;;;5104865;28;19954;-51
2023/12/14 13:53:12;;;;;;;;;;;;;;;;;;5103629;28;20022;-50
2023/12/14 13:55:40;;;;;;;;;;;;;;;;;;5098455;28;20051;-51
2023/12/14 13:58:06;;;;;;;;;;;;;;;;;;5104919;28;19930;-51
2023/12/14 14:00:34;;;;;;;;;;;;;;;;;;5107904;28;19928;-51
2023/12/14 14:03:00;;;;;;;;;;;;;;;;;;5108284;28;19924;-51
2023/12/14 14:05:26;;;;;;;;;;;;;;;;;;5107691;28;19948;-51
2023/12/14 14:07:53;;;;;;;;;;;;;;;;;;5106846;28;20307;-52
2023/12/14 14:10:19;;;;;;;;;;;;;;;;;;5105014;28;19932;-51
2023/12/14 14:12:45;;;;;;;;;;;;;;;;;;5104974;28;20147;-51
2023/12/14 14:15:11;;;;;;;;;;;;;;;;;;5106951;28;20383;-50
2023/12/14 14:17:37;;;;;;;;;;;;;;;;;;5103564;28;20012;-51
2023/12/14 14:20:04;;;;;;;;;;;;;;;;;;5106474;28;20360;-49
2023/12/14 14:22:31;;;;;;;;;;;;;;;;;;5106892;27;20026;-51
2023/12/14 14:24:57;;;;;;;;;;;;;;;;;;5108499;28;20005;-51
2023/12/14 14:27:23;;;;;;;;;;;;;;;;;;5109105;28;20439;-51
2023/12/14 14:29:49;;;;;;;;;;;;;;;;;;5109040;28;19931;-50
2023/12/14 14:32:15;;;;;;;;;;;;;;;;;;5108540;28;19931;-52
2023/12/14 14:34:42;;;;;;;;;;;;;;;;;;5107855;28;19972;-49
2023/12/14 14:37:08;;;;;;;;;;;;;;;;;;5101690;28;19938;-50
2023/12/14 14:39:34;;;;;;;;;;;;;;;;;;5106558;28;19971;-50
2023/12/14 14:42:03;;;;;;;;;;;;;;;;;;5107010;28;19931;-52
2023/12/14 14:44:30;;;;;;;;;;;;;;;;;;5106372;28;19931;-51
2023/12/14 14:46:56;;;;;;;;;;;;;;;;;;5100451;28;19936;-49
2023/12/14 14:49:22;;;;;;;;;;;;;;;;;;5107749;28;20427;-50
2023/12/14 14:51:48;;;;;;;;;;;;;;;;;;5106614;28;19924;-50
2023/12/14 14:54:14;;;;;;;;;;;;;;;;;;5104588;28;19972;-49
2023/12/14 14:56:40;;;;;;;;;;;;;;;;;;5103046;28;19934;-49
2023/12/14 14:59:09;;;;;;;;;;;;;;;;;;5107853;28;19932;-49
2023/12/14 15:01:35;;;;;;;;;;;;;;;;;;5109002;28;20239;-50
2023/12/14 15:04:01;;;;;;;;;;;;;;;;;;5105608;28;19975;-49
2023/12/14 15:06:28;;;;;;;;;;;;;;;;;;5107558;28;19976;-49
2023/12/14 15:08:54;;;;;;;;;;;;;;;;;;5102831;28;20283;-50
2023/12/14 15:11:20;;;;;;;;;;;;;;;;;;5108267;27;20022;-50
2023/12/14 15:13:46;;;;;;;;;;;;;;;;;;5102736;28;19928;-48
2023/12/14 15:16:13;;;;;;;;;;;;;;;;;;5108485;28;19938;-48
2023/12/14 15:18:41;;;;;;;;;;;;;;;;;;5102929;28;19924;-51
2023/12/14 15:21:07;;;;;;;;;;;;;;;;;;5106241;28;19939;-51
2023/12/14 15:23:36;;;;;;;;;;;;;;;;;;5107911;28;19968;-50
2023/12/14 15:26:02;;;;;;;;;;;;;;;;;;5108486;28;19985;-49
2023/12/14 15:28:29;;;;;;;;;;;;;;;;;;5104304;28;19939;-51
2023/12/14 15:30:55;;;;;;;;;;;;;;;;;;5107710;28;20284;-50
2023/12/14 15:33:21;;;;;;;;;;;;;;;;;;5107303;28;21598;-50
2023/12/14 15:35:47;;;;;;;;;;;;;;;;;;5107649;27;19989;-49
2023/12/14 15:38:13;;;;;;;;;;;;;;;;;;5106027;28;20378;-49
2023/12/14 15:40:40;;;;;;;;;;;;;;;;;;5105615;28;20412;-47
2023/12/14 15:43:07;;;;;;;;;;;;;;;;;;5106792;27;19924;-50
2023/12/14 15:45:33;;;;;;;;;;;;;;;;;;5106078;28;20024;-47
2023/12/14 15:47:59;;;;;;;;;;;;;;;;;;5105659;28;19983;-49
2023/12/14 15:50:26;;;;;;;;;;;;;;;;;;5107462;28;19966;-50
2023/12/14 15:52:52;;;;;;;;;;;;;;;;;;5107189;27;19931;-46
2023/12/14 15:55:18;;;;;;;;;;;;;;;;;;5107655;28;19950;-49
2023/12/14 15:57:45;;;;;;;;;;;;;;;;;;5107795;27;19928;-51
2023/12/14 16:00:11;;;;;;;;;;;;;;;;;;5108209;28;19927;-47
2023/12/14 16:02:37;;;;;;;;;;;;;;;;;;5108115;28;20019;-50
2023/12/14 16:05:04;;;;;;;;;;;;;;;;;;5107743;28;19924;-51
2023/12/14 16:07:30;;;;;;;;;;;;;;;;;;5107566;28;19979;-50
2023/12/14 16:09:56;;;;;;;;;;;;;;;;;;5107920;28;20367;-50
2023/12/14 16:12:23;;;;;;;;;;;;;;;;;;5107767;28;20334;-50
2023/12/14 16:14:49;;;;;;;;;;;;;;;;;;5107284;28;19927;-50
2023/12/14 16:17:17;;;;;;;;;;;;;;;;;;5107366;28;19928;-48
2023/12/14 16:19:43;;;;;;;;;;;;;;;;;;5107949;28;20455;-50
2023/12/14 16:22:12;;;;;;;;;;;;;;;;;;5106978;28;19924;-50
2023/12/14 16:24:38;;;;;;;;;;;;;;;;;;5107259;28;19967;-55
2023/12/14 16:27:04;;;;;;;;;;;;;;;;;;5107472;28;19947;-50
2023/12/14 16:29:30;;;;;;;;;;;;;;;;;;5107487;28;20014;-51
2023/12/14 16:31:56;;;;;;;;;;;;;;;;;;5107841;28;19924;-51
2023/12/14 16:34:22;;;;;;;;;;;;;;;;;;5107010;28;19924;-50
2023/12/14 16:36:49;;;;;;;;;;;;;;;;;;5106563;28;19927;-50
2023/12/14 16:39:15;;;;;;;;;;;;;;;;;;5106600;28;19923;-50